Flight Track Log - Related Links

Times and Time Zones

All times are in EDT time to prevent confusion due to time zone crossing. See the N860BA flight status page for this flight to view local times or setup timezone preferences in your user account.

Time Position Orientation Groundspeed Altitude Reporting Facility
EDT Latitude Longitude Course Direction KTS MPH feet Rate Location/Type
Sat 08:55:59 AM 30.0050 -90.2456 11° North 152 175 400  Level Houston Center
Sat 08:56:37 AM 30.0314 -90.2394 11° North 172 198 1,300 2,100 Climbing Houston Center
Sat 08:57:39 AM 30.0847 -90.2286 10° North 188 216 3,900 2,634 Climbing Houston Center
Sat 08:58:40 AM 30.1419 -90.1981 25° Northeast 217 250 6,700 2,656 Climbing Houston Center
Sat 08:59:41 AM 30.1978 -90.1608 30° Northeast 229 264 9,300 2,311 Climbing Houston Center
Sat 09:00:42 AM 30.2436 -90.0978 50° Northeast 271 312 11,400 2,213 Climbing Houston Center
Sat 09:01:43 AM 30.2714 -89.9844 74° East 306 352 13,800 2,000 Climbing Houston Center
Sat 09:02:45 AM 30.3000 -89.8814 72° East 333 383 15,500 1,561 Climbing Houston Center
Sat 09:03:46 AM 30.3286 -89.7803 72° East 362 417 17,000 1,426 Climbing Houston Center
Sat 09:04:47 AM 30.3647 -89.6597 71° East 386 444 18,400 1,525 Climbing Houston Center
Sat 09:05:48 AM 30.3997 -89.5386 71° East 395 455 20,100 1,805 Climbing Houston Center
Sat 09:06:50 AM 30.4217 -89.3867 80° East 403 464 22,100 1,756 Climbing Houston Center
Sat 09:07:51 AM 30.4267 -89.2569 87° East 405 466 23,700 1,525 Climbing Houston Center
Sat 09:08:52 AM 30.4317 -89.1269 87° East 404 465 25,200 1,426 Climbing Houston Center
Sat 09:09:53 AM 30.4372 -88.9989 87° East 399 459 26,600 1,033 Climbing Houston Center
Sat 09:10:54 AM 30.4436 -88.8706 87° East 406 467 27,300 639 Climbing Houston Center
Sat 09:11:55 AM 30.4486 -88.7317 88° East 429 494 27,900 639 Climbing Houston Center
Sat 09:12:56 AM 30.4544 -88.5883 87° East 445 512 28,600 634 Climbing Houston Center
Sat 09:13:58 AM 30.4594 -88.4406 88° East 460 529 29,200 683 Climbing Houston Center
Sat 09:14:59 AM 30.4681 -88.2600 87° East 471 542 30,000 738 Climbing Houston Center
Sat 09:16:00 AM 30.4728 -88.1094 88° East 473 544 30,700 689 Climbing Houston Center
Sat 09:17:01 AM 30.4792 -87.9556 87° East 480 552 31,400 689 Climbing Houston Center
Sat 09:18:02 AM 30.4833 -87.8014 88° East 483 556 32,100 694 Climbing Houston Center
Sat 09:19:02 AM 30.4889 -87.6458 88° East 486 559 32,800 700 Climbing Jacksonville Center
Sat 09:20:02 AM 30.4947 -87.4872 88° East 486 559 33,500 750 Climbing Jacksonville Center
Sat 09:21:02 AM 30.5003 -87.3283 88° East 491 565 34,300 750 Climbing Jacksonville Center
Sat 09:22:02 AM 30.5039 -87.1669 88° East 496 571 35,000 700 Climbing Jacksonville Center
Sat 09:23:02 AM 30.5092 -87.0033 88° East 496 571 35,700 650 Climbing Jacksonville Center
Sat 09:24:02 AM 30.5164 -86.8422 87° East 496 571 36,300 650 Climbing Jacksonville Center
Sat 09:25:02 AM 30.5192 -86.6783 89° East 496 571 37,000 350 Climbing Jacksonville Center
Sat 09:26:02 AM 30.5219 -86.5144 89° East 496 571 37,000  Level Jacksonville Center
Sat 09:27:02 AM 30.5244 -86.3458 89° East 501 577 37,000  Level Jacksonville Center
Sat 09:28:02 AM 30.5311 -86.1747 87° East 517 595 37,000  Level Jacksonville Center
Sat 09:29:02 AM 30.5333 -86.0011 89° East 528 608 37,000  Level Jacksonville Center
Sat 09:30:02 AM 30.5375 -85.8300 88° East 533 613 37,000  Level Jacksonville Center
Sat 09:31:02 AM 30.5308 -85.6564 93° East 533 613 37,000  Level Jacksonville Center
Sat 09:32:02 AM 30.4631 -85.5122 119° Southeast 504 580 37,000  Level Jacksonville Center
Sat 09:33:02 AM 30.3758 -85.3822 128° Southeast 495 570 37,000  Level Jacksonville Center
Sat 09:34:02 AM 30.2844 -85.2522 129° Southeast 511 588 37,000  Level Jacksonville Center
Sat 09:35:02 AM 30.1889 -85.1106 128° Southeast 511 588 37,000  Level Jacksonville Center
Sat 09:36:02 AM 30.1011 -84.9861 129° Southeast 516 594 37,000  Level Jacksonville Center
Sat 09:37:02 AM 30.0114 -84.8569 129° Southeast 516 594 37,000  Level Jacksonville Center
Sat 09:38:02 AM 29.9275 -84.7308 127° Southeast 511 588 37,000  Level Jacksonville Center
Sat 09:39:02 AM 29.8397 -84.6022 128° Southeast 511 588 37,000  Level Jacksonville Center
Sat 09:40:02 AM 29.7494 -84.4761 129° Southeast 511 588 37,000  Level Jacksonville Center
Sat 09:41:02 AM 29.6692 -84.3650 130° Southeast 502 578 37,000  Level Jacksonville Center
Sat 09:42:02 AM 29.5808 -84.2394 129° Southeast 507 583 37,000  Level Jacksonville Center
Sat 09:43:02 AM 29.4944 -84.1142 128° Southeast 507 583 37,000  Level Jacksonville Center
Sat 09:44:02 AM 29.3744 -84.0056 142° Southeast 493 567 37,000  Level Jacksonville Center
Sat 09:45:02 AM 29.2539 -83.9350 153° Southeast 493 567 37,000  Level Jacksonville Center
Sat 09:46:02 AM 29.1333 -83.8650 153° Southeast 487 560 37,000  Level Jacksonville Center
Sat 09:47:02 AM 29.0128 -83.7947 153° Southeast 481 554 37,000  Level Jacksonville Center
Sat 09:48:02 AM 28.8944 -83.7225 152° Southeast 486 559 37,000  Level Jacksonville Center
Sat 09:49:57 AM 28.6803 -83.5978 153° Southeast 483 556 37,000 -69 Level Miami Center
Sat 09:50:57 AM 28.5586 -83.5269 153° Southeast 483 556 36,800 -450 Descending Miami Center
Sat 09:51:57 AM 28.4367 -83.4581 154° Southeast 483 556 36,100 -800 Descending Miami Center
Sat 09:52:57 AM 28.3106 -83.3872 154° Southeast 494 568 35,200 -600 Descending Miami Center
Sat 09:53:57 AM 28.1669 -83.3342 162° South 500 575 34,900 -800 Descending Miami Center
Sat 09:54:57 AM 28.0414 -83.2517 150° Southeast 506 582 33,600 -2,000 Descending Miami Center
Sat 09:55:57 AM 27.9200 -83.1722 150° Southeast 511 588 30,900 -2,400 Descending Miami Center
Sat 09:56:57 AM 27.8042 -83.0978 150° Southeast 499 574 28,800 -2,000 Descending Miami Center
Sat 09:57:57 AM 27.6906 -83.0281 151° Southeast 482 555 26,900 -1,850 Descending Miami Center
Sat 09:58:57 AM 27.5828 -82.9614 151° Southeast 462 532 25,100 -1,750 Descending Miami Center
Sat 09:59:57 AM 27.4831 -82.8978 150° Southeast 436 502 23,400 -1,750 Descending Miami Center
Sat 10:00:57 AM 27.3794 -82.8339 151° Southeast 423 487 21,600 -1,750 Descending Miami Center
Sat 10:01:57 AM 27.2819 -82.7728 151° Southeast 412 474 19,900 -1,700 Descending Miami Center
Sat 10:02:57 AM 27.1842 -82.7117 151° Southeast 405 466 18,200 -1,650 Descending Miami Center
Sat 10:03:57 AM 27.0803 -82.6483 152° Southeast 405 466 16,600 -1,650 Descending Miami Center
Sat 10:04:57 AM 26.9744 -82.5825 151° Southeast 418 481 14,900 -1,900 Descending Miami Center
Sat 10:05:57 AM 26.8664 -82.5167 151° Southeast 430 495 12,800 -1,850 Descending Miami Center
Sat 10:06:57 AM 26.7683 -82.4583 152° Southeast 422 486 11,200 -1,350 Descending Miami Center
Sat 10:07:57 AM 26.6847 -82.4081 152° Southeast 384 442 10,100 -1,100 Descending Miami Center
Sat 10:08:57 AM 26.6117 -82.3581 149° Southeast 339 390 9,000 -1,150 Descending Miami Center
Sat 10:09:57 AM 26.5444 -82.3086 147° Southeast 304 350 7,800 -1,350 Descending Miami Center
Sat 10:10:57 AM 26.4775 -82.2592 147° Southeast 288 331 6,300 -1,400 Descending Miami Center
Sat 10:11:57 AM 26.4208 -82.2100 142° Southeast 283 326 5,000 -700 Descending Miami Center
Sat 10:12:57 AM 26.3792 -82.1550 130° Southeast 255 293 4,900 -50 Descending Miami Center
Sat 10:13:57 AM 26.3169 -82.1406 168° South 221 254 4,900  Level Miami Center
Sat 10:15:00 AM 26.2168 -82.0601 144° Southeast  Level FlightAware Approximate
Sat 10:22:00 AM 26.1524 -81.7756 66° East  Level Estimated
Sat 10:23:00 AM 26.1524 -81.7756 66° East  Level Estimated
Sat 10:24:00 AM 26.1524 -81.7756 66° East  Level Estimated
Sat 10:25:00 AM 26.1524 -81.7756 66° East  Level Estimated
Sat 10:26:00 AM 26.1524 -81.7756 66° East  Level Estimated
Sat 10:27:00 AM 26.1524 -81.7756 66° East  Level Estimated
Sat 10:28:00 AM 26.1524 -81.7756 66° East  Level Estimated
Sat 10:29:00 AM 26.1524 -81.7756 66° East  Level Estimated
Sat 10:30:00 AM 26.1524 -81.7756 66° East  Level Estimated
Sat 10:31:00 AM 26.1524 -81.7756 66° East  Level Estimated
Sat 10:32:00 AM 26.1524 -81.7756 66° East  Level Estimated

Login

Don't have an account? Register now (free) for customized features, flight alerts, and more!